Time;durP1;ratioP1;P1;durP2;ratioP2;P2;SDS_P1;SDS_P2;PMS_P1;PMS_P2;Temp;Humidity;BMP_temperature;BMP_pressure;BME280_temperature;BME280_humidity;BME280_pressure;Samples;Min_cycle;Max_cycle;Signal;HPM_P1;HPM_P2
2022/03/24 00:00:41;;;;;;;38.95;23.58;;;;;;;11.71;36.30;102444.66;5088597;28;20044;-61
2022/03/24 00:03:08;;;;;;;37.40;23.20;;;;;;;11.62;36.43;102439.72;5088487;28;20127;-62
2022/03/24 00:05:39;;;;;;;34.00;23.48;;;;;;;11.57;36.30;102439.03;5090992;28;20048;-63
2022/03/24 00:08:06;;;;;;;37.40;22.63;;;;;;;11.53;36.49;102438.28;5092598;28;20408;-61
2022/03/24 00:10:33;;;;;;;38.97;22.50;;;;;;;11.57;36.38;102434.63;5092558;28;20123;-62
2022/03/24 00:12:59;;;;;;;36.03;23.80;;;;;;;11.59;36.29;102429.31;5078676;28;20106;-63
2022/03/24 00:15:26;;;;;;;35.58;23.45;;;;;;;11.59;36.29;102437.19;5071870;28;20049;-61
2022/03/24 00:17:53;;;;;;;40.50;23.27;;;;;;;11.55;36.34;102433.84;5075344;28;20079;-63
2022/03/24 00:20:20;;;;;;;37.75;24.30;;;;;;;11.54;36.43;102437.38;5075494;28;20480;-62
2022/03/24 00:22:46;;;;;;;37.05;24.13;;;;;;;11.55;36.25;102431.19;5075201;28;20053;-61
2022/03/24 00:25:13;;;;;;;38.95;24.75;;;;;;;11.55;36.13;102428.56;5075216;28;20045;-63
2022/03/24 00:27:40;;;;;;;36.53;24.60;;;;;;;11.56;36.08;102432.03;5074677;28;20111;-61
2022/03/24 00:30:08;;;;;;;37.15;24.30;;;;;;;11.47;36.28;102422.69;5075438;28;20132;-61
2022/03/24 00:32:36;;;;;;;31.95;23.08;;;;;;;11.43;36.66;102424.56;5075210;28;20056;-60
2022/03/24 00:35:03;;;;;;;40.20;25.40;;;;;;;11.45;36.70;102424.50;5075102;28;20090;-61
2022/03/24 00:37:31;;;;;;;39.22;24.33;;;;;;;11.40;36.77;102416.78;5089325;28;20496;-62
2022/03/24 00:40:06;;;;;;;32.88;22.33;;;;;;;11.33;36.93;102417.06;5091961;28;20044;-62
2022/03/24 00:42:36;;;;;;;37.72;23.10;;;;;;;11.27;37.21;102415.47;5074618;28;20094;-61
2022/03/24 00:45:05;;;;;;;34.30;23.58;;;;;;;11.24;37.18;102410.31;5074952;28;20044;-61
2022/03/24 00:47:35;;;;;;;34.75;23.65;;;;;;;11.19;37.20;102413.09;5074891;28;20049;-62
2022/03/24 00:50:07;;;;;;;41.03;24.48;;;;;;;11.15;37.34;102403.59;5074846;28;20048;-61
2022/03/24 00:52:41;;;;;;;39.97;24.00;;;;;;;11.09;37.41;102407.25;5074677;28;20063;-61
2022/03/24 00:55:16;;;;;;;37.25;23.27;;;;;;;11.13;37.46;102408.03;5079665;28;20044;-61
2022/03/24 00:57:45;;;;;;;36.80;24.13;;;;;;;11.15;37.46;102395.72;5094682;28;20400;-62
2022/03/24 01:00:17;;;;;;;37.10;23.25;;;;;;;11.13;37.61;102394.88;5093527;28;20039;-61
2022/03/24 01:02:45;;;;;;;36.85;23.92;;;;;;;11.09;37.67;102401.16;5077862;28;20443;-61
2022/03/24 01:05:18;;;;;;;39.05;24.42;;;;;;;11.09;37.56;102399.38;5074615;28;20044;-61
2022/03/24 01:07:46;;;;;;;37.88;23.90;;;;;;;11.11;37.32;102396.72;5074400;28;20052;-61
2022/03/24 01:10:15;;;;;;;37.33;23.40;;;;;;;11.13;37.49;102401.94;5074615;28;20098;-61
2022/03/24 01:12:42;;;;;;;37.85;24.83;;;;;;;11.08;37.33;102394.19;5074446;28;20044;-61
2022/03/24 01:15:11;;;;;;;33.05;22.73;;;;;;;11.01;37.64;102398.78;5073729;28;20076;-61
2022/03/24 01:17:38;;;;;;;39.22;23.73;;;;;;;10.91;38.01;102392.09;5074228;28;20453;-61
2022/03/24 01:20:06;;;;;;;36.78;23.17;;;;;;;10.87;38.25;102398.34;5074000;28;20052;-61
2022/03/24 01:22:32;;;;;;;35.30;23.48;;;;;;;10.79;38.39;102403.84;5074154;28;20541;-62
2022/03/24 01:24:59;;;;;;;36.33;24.13;;;;;;;10.72;38.46;102395.28;5074342;28;20096;-61
2022/03/24 01:27:28;;;;;;;35.42;23.23;;;;;;;10.73;38.23;102397.00;5074103;28;20051;-62
2022/03/24 01:29:56;;;;;;;34.30;23.95;;;;;;;10.70;38.59;102397.09;5074009;28;20076;-61
2022/03/24 01:32:24;;;;;;;33.95;24.42;;;;;;;10.69;38.65;102390.16;5073878;28;20083;-61
2022/03/24 01:34:50;;;;;;;38.17;25.42;;;;;;;10.70;38.80;102399.72;5074018;28;20048;-62
2022/03/24 01:37:18;;;;;;;36.17;23.40;;;;;;;10.69;38.66;102392.78;5073619;28;20374;-61
2022/03/24 01:39:45;;;;;;;40.33;23.50;;;;;;;10.67;38.76;102388.47;5073767;28;20048;-62
2022/03/24 01:42:13;;;;;;;37.67;24.55;;;;;;;10.69;38.57;102391.91;5074046;28;20076;-61
2022/03/24 01:44:39;;;;;;;36.08;24.15;;;;;;;10.67;38.75;102383.22;5073759;28;20382;-61
2022/03/24 01:47:07;;;;;;;33.92;23.85;;;;;;;10.63;38.49;102385.06;5073904;28;20456;-62
2022/03/24 01:49:37;;;;;;;38.03;25.17;;;;;;;10.56;38.71;102383.53;5073673;28;20059;-61
2022/03/24 01:52:08;;;;;;;43.45;25.45;;;;;;;10.54;38.87;102390.59;5073218;28;20098;-61
2022/03/24 01:54:38;;;;;;;39.72;25.67;;;;;;;10.50;38.76;102388.97;5073387;28;20044;-62
2022/03/24 01:57:08;;;;;;;43.25;25.98;;;;;;;10.47;38.98;102381.19;5073615;28;20040;-62
2022/03/24 01:59:38;;;;;;;37.67;24.90;;;;;;;10.44;38.91;102387.41;5073483;28;20048;-61
2022/03/24 02:02:06;;;;;;;40.45;25.77;;;;;;;10.48;38.92;102380.28;5072655;28;20041;-61
2022/03/24 02:04:35;;;;;;;38.50;25.02;;;;;;;10.49;39.08;102379.38;5073375;28;20041;-62
2022/03/24 02:07:06;;;;;;;35.13;24.75;;;;;;;10.48;39.06;102370.66;5073400;28;20113;-62
2022/03/24 02:09:33;;;;;;;39.33;25.52;;;;;;;10.50;39.28;102366.22;5072697;28;20451;-61
2022/03/24 02:12:04;;;;;;;37.80;26.40;;;;;;;10.51;39.24;102367.06;5073294;28;20045;-61
2022/03/24 02:14:31;;;;;;;34.95;24.73;;;;;;;10.49;39.55;102372.38;5072693;28;20098;-62
2022/03/24 02:16:58;;;;;;;38.30;25.58;;;;;;;10.46;39.86;102369.81;5073289;28;20044;-62
2022/03/24 02:19:26;;;;;;;36.78;26.58;;;;;;;10.41;39.95;102367.34;5073008;28;20048;-61
2022/03/24 02:21:58;;;;;;;35.83;24.67;;;;;;;10.44;39.98;102366.41;5073321;28;20048;-62
2022/03/24 02:24:26;;;;;;;33.75;24.35;;;;;;;10.39;40.38;102370.94;5072632;28;20492;-61
2022/03/24 02:26:54;;;;;;;38.58;25.52;;;;;;;10.37;40.31;102368.31;5072050;28;20548;-61
2022/03/24 02:29:25;;;;;;;37.97;25.55;;;;;;;10.34;40.38;102363.16;5072925;28;20049;-62
2022/03/24 02:31:52;;;;;;;35.60;25.55;;;;;;;10.27;40.54;102367.72;5072779;28;20053;-63
2022/03/24 02:34:37;;;;;;;33.65;23.85;;;;;;;10.17;40.82;102366.28;5072793;28;20554;-61
2022/03/24 02:37:09;;;;;;;35.17;23.85;;;;;;;10.12;40.88;102368.19;5072742;28;20078;-61
2022/03/24 02:39:57;;;;;;;35.65;24.33;;;;;;;10.11;41.13;102371.69;5072630;28;20056;-61
2022/03/24 02:42:30;;;;;;;33.83;24.23;;;;;;;10.11;41.30;102367.28;5072233;28;20041;-61
2022/03/24 02:45:02;;;;;;;36.08;24.55;;;;;;;10.14;41.40;102371.59;5072585;28;20044;-61
2022/03/24 02:47:29;;;;;;;36.10;24.80;;;;;;;10.08;41.53;102374.38;5072588;28;20389;-62
2022/03/24 02:49:58;;;;;;;33.47;24.80;;;;;;;10.14;41.59;102366.34;5072711;28;20558;-61
2022/03/24 02:52:25;;;;;;;37.05;25.00;;;;;;;10.15;41.67;102367.22;5072499;28;20044;-61
2022/03/24 02:54:51;;;;;;;35.65;24.90;;;;;;;10.09;41.90;102370.88;5072595;28;20052;-62
2022/03/24 02:57:18;;;;;;;32.45;23.90;;;;;;;10.09;41.90;102366.50;5072474;28;20089;-63
2022/03/24 02:59:45;;;;;;;34.28;25.08;;;;;;;10.08;41.84;102374.38;5071872;28;20060;-62
2022/03/24 03:02:13;;;;;;;35.75;25.75;;;;;;;10.12;41.79;102376.03;5072586;28;20045;-61
2022/03/24 03:04:43;;;;;;;34.58;24.58;;;;;;;10.09;41.75;102370.88;5072446;28;20049;-61
2022/03/24 03:07:10;;;;;;;38.20;26.80;;;;;;;10.14;41.66;102374.22;5072338;28;20090;-61
2022/03/24 03:09:39;;;;;;;37.13;25.13;;;;;;;10.09;41.78;102366.50;5072241;28;20106;-60
2022/03/24 03:12:09;;;;;;;38.20;26.27;;;;;;;10.07;41.80;102365.66;5072473;28;20044;-62
2022/03/24 03:14:38;;;;;;;38.45;26.05;;;;;;;10.08;41.97;102369.13;5071484;28;20435;-62
2022/03/24 03:17:05;;;;;;;41.15;26.65;;;;;;;10.09;41.98;102370.88;5072235;28;20094;-61
2022/03/24 03:19:32;;;;;;;37.40;26.15;;;;;;;10.04;41.94;102359.66;5072067;28;20053;-62
2022/03/24 03:21:59;;;;;;;35.95;24.90;;;;;;;10.00;42.18;102364.13;5072152;28;20393;-61
2022/03/24 03:24:25;;;;;;;37.15;25.40;;;;;;;9.96;42.50;102365.97;5071086;28;20052;-61
2022/03/24 03:26:53;;;;;;;35.17;25.75;;;;;;;9.96;42.65;102365.97;5072313;28;20099;-61
2022/03/24 03:29:24;;;;;;;35.63;24.75;;;;;;;9.97;42.81;102357.19;5072247;28;20069;-61
2022/03/24 03:31:53;;;;;;;37.42;25.70;;;;;;;9.91;42.94;102359.97;5073060;28;20044;-61
2022/03/24 03:34:24;;;;;;;42.10;25.45;;;;;;;9.83;43.20;102361.09;5072089;28;20041;-62
2022/03/24 03:36:55;;;;;;;34.33;24.60;;;;;;;9.74;43.39;102362.22;5072085;28;20159;-62
2022/03/24 03:39:23;;;;;;;36.28;24.88;;;;;;;9.62;43.37;102366.91;5074491;28;20098;-61
2022/03/24 03:41:50;;;;;;;35.20;26.17;;;;;;;9.54;43.55;102368.84;5091854;28;20102;-61
2022/03/24 03:44:16;;;;;;;32.83;24.05;;;;;;;9.49;43.73;102375.97;5076187;28;20052;-61
2022/03/24 03:46:44;;;;;;;39.35;24.58;;;;;;;9.42;43.77;102374.41;5075606;28;20052;-61
2022/03/24 03:49:11;;;;;;;41.83;24.95;;;;;;;9.37;43.55;102371.91;5075915;28;20059;-61
2022/03/24 03:51:38;;;;;;;35.50;24.42;;;;;;;9.39;43.54;102374.47;5075903;28;20481;-61
2022/03/24 03:54:07;;;;;;;45.10;26.23;;;;;;;9.35;43.66;102373.69;5075996;28;20485;-61
2022/03/24 03:56:36;;;;;;;41.33;25.02;;;;;;;9.35;43.80;102376.31;5076059;28;20051;-62
2022/03/24 03:59:04;;;;;;;37.95;24.88;;;;;;;9.34;43.69;102374.59;5075835;28;20094;-61
2022/03/24 04:01:31;;;;;;;36.15;24.85;;;;;;;9.32;43.78;102373.78;5075374;28;20117;-61
2022/03/24 04:03:58;;;;;;;37.35;26.08;;;;;;;9.31;44.05;102370.28;5085723;28;20048;-62
2022/03/24 04:06:25;;;;;;;37.28;26.38;;;;;;;9.34;43.92;102371.13;5091606;28;20040;-62
2022/03/24 04:08:52;;;;;;;40.78;26.55;;;;;;;9.29;44.17;102364.25;5092584;28;20044;-61
2022/03/24 04:11:19;;;;;;;40.17;25.77;;;;;;;9.28;44.28;102369.50;5092555;28;20105;-63
2022/03/24 04:13:46;;;;;;;35.40;25.65;;;;;;;9.30;44.20;102365.09;5092232;28;20553;-62
2022/03/24 04:16:13;;;;;;;41.38;26.42;;;;;;;9.31;44.32;102367.66;5092368;28;20569;-61
2022/03/24 04:18:46;;;;;;;38.72;26.38;;;;;;;9.34;44.40;102366.72;5085563;28;20050;-61
2022/03/24 04:21:13;;;;;;;42.70;25.27;;;;;;;9.39;44.16;102362.22;5072370;28;20436;-61
2022/03/24 04:23:42;;;;;;;45.47;26.73;;;;;;;9.34;44.42;102369.34;5072033;28;20045;-61
2022/03/24 04:26:12;;;;;;;49.65;26.00;;;;;;;9.29;44.74;102371.22;5072077;28;20048;-61
2022/03/24 04:28:41;;;;;;;38.72;26.15;;;;;;;9.24;44.68;102373.97;5071989;28;20096;-63
2022/03/24 04:31:08;;;;;;;43.90;25.33;;;;;;;9.25;44.59;102370.44;5072181;28;20044;-61
2022/03/24 04:33:34;;;;;;;40.33;25.15;;;;;;;9.24;44.71;102371.38;5071855;28;20416;-61
2022/03/24 04:36:01;;;;;;;45.30;27.05;;;;;;;9.23;44.62;102366.13;5071430;28;20091;-61
2022/03/24 04:38:28;;;;;;;40.80;26.80;;;;;;;9.23;44.78;102374.00;5071412;28;20048;-61
2022/03/24 04:40:56;;;;;;;46.83;28.88;;;;;;;9.20;44.84;102369.69;5071812;28;20048;-61
2022/03/24 04:43:24;;;;;;;40.88;26.25;;;;;;;9.22;44.91;102367.03;5071768;28;20048;-62
2022/03/24 04:45:50;;;;;;;43.40;27.88;;;;;;;9.18;45.14;102365.41;5071804;28;20106;-61
2022/03/24 04:48:18;;;;;;;42.70;27.15;;;;;;;9.15;45.11;102368.94;5071541;28;20044;-62
2022/03/24 04:50:44;;;;;;;45.40;28.10;;;;;;;9.09;45.38;102380.44;5070428;28;20643;-61
2022/03/24 04:53:15;;;;;;;39.33;27.20;;;;;;;9.08;45.38;102381.34;5071645;28;20382;-61
2022/03/24 04:55:44;;;;;;;39.95;25.83;;;;;;;9.02;45.50;102380.63;5071470;28;20127;-61
2022/03/24 04:58:12;;;;;;;37.28;26.08;;;;;;;8.95;45.61;102385.13;5071292;28;20050;-61
2022/03/24 05:00:39;;;;;;;39.83;26.42;;;;;;;8.93;45.70;102390.41;5071708;28;20067;-62
2022/03/24 05:03:06;;;;;;;35.78;25.42;;;;;;;8.90;45.87;102385.25;5071391;28;20474;-62
2022/03/24 05:05:33;;;;;;;38.35;25.88;;;;;;;8.89;46.20;102400.97;5071156;28;20052;-61
2022/03/24 05:08:00;;;;;;;35.47;25.27;;;;;;;8.82;46.34;102395.91;5071258;28;20964;-61
2022/03/24 05:10:27;;;;;;;40.42;25.92;;;;;;;8.82;46.16;102395.91;5091156;28;20052;-62
2022/03/24 05:12:54;;;;;;;37.83;25.75;;;;;;;8.87;46.11;102397.56;5091449;28;20492;-61
2022/03/24 05:15:22;;;;;;;36.38;25.50;;;;;;;8.85;46.55;102401.94;5091095;28;20052;-61
2022/03/24 05:17:48;;;;;;;42.50;27.20;;;;;;;8.86;46.28;102398.44;5091190;28;20047;-61
2022/03/24 05:20:15;;;;;;;37.15;25.95;;;;;;;8.87;46.39;102395.78;5080240;28;20048;-63
2022/03/24 05:22:42;;;;;;;39.92;27.15;;;;;;;8.90;46.46;102400.09;5070020;28;20093;-63
2022/03/24 05:25:09;;;;;;;38.38;25.13;;;;;;;8.93;46.48;102402.66;5082616;28;20135;-61
2022/03/24 05:27:35;;;;;;;35.97;25.23;;;;;;;8.92;46.35;102404.38;5071051;28;20040;-62
2022/03/24 05:30:03;;;;;;;39.38;26.20;;;;;;;8.91;46.47;102407.94;5079816;28;20044;-61
2022/03/24 05:32:30;;;;;;;39.83;25.08;;;;;;;8.92;46.58;102414.88;5091019;28;20846;-61
2022/03/24 05:34:57;;;;;;;37.97;24.85;;;;;;;8.99;46.31;102415.59;5090981;28;20052;-61
2022/03/24 05:37:24;;;;;;;36.60;25.10;;;;;;;9.06;46.19;102411.94;5090568;28;20048;-61
2022/03/24 05:39:51;;;;;;;34.50;24.23;;;;;;;9.08;46.17;102415.38;5086493;28;20041;-61
2022/03/24 05:42:18;;;;;;;36.50;25.05;;;;;;;9.12;46.07;102413.56;5075743;28;20500;-61
2022/03/24 05:44:44;;;;;;;32.90;24.77;;;;;;;9.13;46.20;102415.28;5080918;28;20123;-64
2022/03/24 05:47:11;;;;;;;44.85;25.80;;;;;;;9.17;46.01;102421.28;5090579;28;20535;-63
2022/03/24 05:49:38;;;;;;;36.10;25.13;;;;;;;9.20;45.94;102411.59;5083817;28;20053;-63
2022/03/24 05:52:05;;;;;;;24.85;15.45;;;;;;;9.32;46.73;102418.31;5078457;28;20078;-62
2022/03/24 05:54:32;;;;;;;42.13;25.50;;;;;;;10.11;46.25;102414.50;5070186;28;20463;-61
2022/03/24 05:56:59;;;;;;;41.10;26.15;;;;;;;9.71;46.73;102415.56;5087987;28;20502;-62
2022/03/24 05:59:26;;;;;;;39.72;26.90;;;;;;;9.58;46.62;102422.03;5080192;28;20458;-63
2022/03/24 06:02:05;;;;;;;47.40;26.55;;;;;;;9.48;46.61;102413.56;5069918;28;20044;-63
2022/03/24 06:04:41;;;;;;;43.55;26.73;;;;;;;9.42;46.59;102421.56;5069865;28;20665;-62
2022/03/24 06:07:10;;;;;;;38.97;26.27;;;;;;;9.40;46.46;102420.75;5070045;28;20056;-66
2022/03/24 06:09:36;;;;;;;43.67;26.45;;;;;;;9.41;46.39;102420.72;5069729;28;20089;-62
2022/03/24 06:12:03;;;;;;;41.78;26.23;;;;;;;9.41;46.55;102414.63;5069855;28;20040;-62
2022/03/24 06:14:31;;;;;;;43.50;26.58;;;;;;;9.42;46.66;102417.19;5069881;28;20052;-63
2022/03/24 06:16:57;;;;;;;45.03;26.30;;;;;;;9.41;46.62;102419.88;5070209;28;20059;-62
2022/03/24 06:19:24;;;;;;;44.80;26.65;;;;;;;9.41;46.89;102417.25;5080437;28;20052;-62
2022/03/24 06:21:50;;;;;;;42.83;26.23;;;;;;;9.42;47.15;102422.44;5089576;28;20101;-62
2022/03/24 06:24:17;;;;;;;40.15;27.35;;;;;;;9.44;47.11;102420.63;5090008;28;20048;-62
2022/03/24 06:26:44;;;;;;;44.83;26.67;;;;;;;9.48;47.25;102418.78;5089787;28;20044;-62
2022/03/24 06:29:13;;;;;;;40.38;26.17;;;;;;;9.53;47.19;102424.78;5087298;28;20439;-62
2022/03/24 06:31:41;;;;;;;36.45;25.33;;;;;;;9.59;47.25;102423.78;5069708;28;20044;-62
2022/03/24 06:34:08;;;;;;;47.15;27.13;;;;;;;9.64;47.11;102421.91;5068939;28;20127;-62
2022/03/24 06:36:36;;;;;;;41.47;26.95;;;;;;;9.69;47.13;102416.50;5069203;28;20076;-62
2022/03/24 06:39:04;;;;;;;37.88;26.13;;;;;;;9.75;47.07;102416.34;5074636;28;20594;-62
2022/03/24 06:41:30;;;;;;;46.00;26.75;;;;;;;9.89;46.88;102408.13;5089498;28;20073;-62
2022/03/24 06:43:59;;;;;;;43.67;24.83;;;;;;;9.98;46.81;102407.91;5089555;28;20101;-65
2022/03/24 06:46:27;;;;;;;34.25;23.58;;;;;;;10.04;46.81;102414.72;5076794;28;20051;-61
2022/03/24 06:48:54;;;;;;;38.00;24.92;;;;;;;10.18;46.56;102417.81;5069296;28;20041;-64
2022/03/24 06:51:21;;;;;;;40.00;24.27;;;;;;;10.35;46.45;102412.09;5068421;28;20044;-61
2022/03/24 06:53:48;;;;;;;35.60;22.50;;;;;;;10.85;45.72;102405.41;5069403;28;20451;-62
2022/03/24 06:56:14;;;;;;;39.72;23.60;;;;;;;10.90;45.75;102412.22;5068464;28;20060;-62
2022/03/24 06:58:47;;;;;;;37.55;23.65;;;;;;;11.03;45.55;102407.44;5068855;28;20417;-62
2022/03/24 07:01:14;;;;;;;39.47;24.27;;;;;;;11.19;45.22;102405.22;5069186;28;20485;-62
2022/03/24 07:03:40;;;;;;;34.00;21.20;;;;;;;11.26;45.17;102398.84;5068885;28;20045;-63
2022/03/24 07:06:07;;;;;;;32.92;22.48;;;;;;;11.36;45.11;102409.91;5068288;28;20055;-63
2022/03/24 07:08:35;;;;;;;36.58;22.38;;;;;;;11.43;44.60;102414.03;5069213;28;20052;-63
2022/03/24 07:11:06;;;;;;;28.38;20.13;;;;;;;11.70;44.01;102408.75;5069040;28;20044;-62
2022/03/24 07:13:32;;;;;;;31.27;19.95;;;;;;;11.98;43.24;102409.59;5068322;28;20507;-66
2022/03/24 07:15:59;;;;;;;34.03;20.08;;;;;;;12.08;42.92;102409.19;5088410;28;20113;-62
2022/03/24 07:18:26;;;;;;;31.30;19.23;;;;;;;12.31;42.08;102406.66;5088693;28;20044;-63
2022/03/24 07:20:52;;;;;;;32.15;19.88;;;;;;;12.47;41.59;102399.91;5088641;28;20043;-67
2022/03/24 07:23:20;;;;;;;30.75;18.42;;;;;;;12.66;41.00;102396.53;5085100;28;20055;-64
2022/03/24 07:25:46;;;;;;;27.23;18.58;;;;;;;12.70;40.72;102393.75;5086289;28;20040;-63
2022/03/24 07:28:14;;;;;;;25.48;17.90;;;;;;;12.98;39.87;102400.56;5086983;28;20378;-64
2022/03/24 07:30:42;;;;;;;26.88;16.42;;;;;;;13.28;39.12;102399.34;5088441;28;20389;-66
2022/03/24 07:33:11;;;;;;;28.85;17.55;;;;;;;13.44;38.68;102397.81;5088533;28;20040;-63
2022/03/24 07:35:37;;;;;;;25.35;16.90;;;;;;;13.57;38.32;102392.03;5088855;28;20055;-62
2022/03/24 07:38:04;;;;;;;31.13;17.85;;;;;;;13.77;37.88;102389.38;5088858;28;20098;-62
2022/03/24 07:40:31;;;;;;;26.92;18.42;;;;;;;13.93;37.68;102393.97;5083672;28;20117;-63
2022/03/24 07:42:58;;;;;;;31.92;20.88;;;;;;;14.02;37.67;102398.88;5087003;28;20093;-60
2022/03/24 07:45:26;;;;;;;32.53;22.25;;;;;;;14.03;38.10;102395.31;5088660;28;20086;-62
2022/03/24 07:48:09;;;;;;;35.65;21.98;;;;;;;14.21;38.14;102399.75;5087495;28;20070;-66
2022/03/24 07:50:39;;;;;;;33.17;22.23;;;;;;;14.39;37.97;102405.13;5087927;28;20052;-63
2022/03/24 07:53:38;;;;;;;33.78;23.13;;;;;;;14.65;37.75;102395.16;5088000;28;20044;-62
2022/03/24 07:56:05;;;;;;;32.50;22.45;;;;;;;14.79;37.80;102398.00;5063144;28;20044;-63
2022/03/24 07:58:31;;;;;;;32.30;22.05;;;;;;;14.84;37.78;102395.13;5081289;28;20040;-62
2022/03/24 08:00:59;;;;;;;32.17;21.83;;;;;;;15.06;37.38;102394.94;5068311;28;20478;-61
2022/03/24 08:03:26;;;;;;;31.10;20.42;;;;;;;15.18;37.01;102397.00;5068046;28;20072;-62
2022/03/24 08:05:53;;;;;;;29.50;19.83;;;;;;;15.31;36.53;102396.34;5068457;28;20158;-62
2022/03/24 08:08:20;;;;;;;32.40;19.23;;;;;;;15.49;36.09;102400.72;5067325;28;20041;-62
2022/03/24 08:10:49;;;;;;;32.92;19.70;;;;;;;15.68;35.61;102400.63;5075041;28;20048;-62
2022/03/24 08:13:18;;;;;;;28.95;18.90;;;;;;;15.82;35.21;102407.03;5088219;28;20056;-62
2022/03/24 08:15:46;;;;;;;26.20;16.42;;;;;;;16.01;34.84;102412.22;5069536;28;20064;-63
2022/03/24 08:18:14;;;;;;;25.33;17.23;;;;;;;16.18;34.07;102411.31;5067354;28;20046;-62
2022/03/24 08:20:42;;;;;;;31.65;19.30;;;;;;;16.31;33.68;102411.50;5068084;28;20052;-62
2022/03/24 08:23:10;;;;;;;29.88;18.10;;;;;;;16.51;33.24;102404.28;5069115;28;20048;-65
2022/03/24 08:25:42;;;;;;;33.92;20.38;;;;;;;16.70;33.27;102407.59;5089499;28;20044;-60
2022/03/24 08:28:10;;;;;;;25.02;18.33;;;;;;;16.89;32.79;102407.41;5091147;28;20112;-61
2022/03/24 08:30:37;;;;;;;27.52;17.88;;;;;;;16.97;32.38;102407.84;5091799;28;20169;-60
2022/03/24 08:33:03;;;;;;;28.17;19.52;;;;;;;17.13;31.88;102407.00;5071717;28;20049;-60
2022/03/24 08:35:30;;;;;;;29.13;19.63;;;;;;;17.18;31.83;102409.38;5071966;28;20503;-60
2022/03/24 08:37:57;;;;;;;24.83;18.83;;;;;;;17.32;30.85;102401.47;5070783;28;20048;-60
2022/03/24 08:40:23;;;;;;;26.20;19.40;;;;;;;17.39;31.07;102407.25;5074283;28;20052;-61
2022/03/24 08:42:50;;;;;;;25.42;19.73;;;;;;;17.68;30.26;102402.88;5091789;28;20500;-60
2022/03/24 08:45:18;;;;;;;27.25;19.27;;;;;;;17.77;30.18;102404.13;5091965;28;20416;-60
2022/03/24 08:47:44;;;;;;;28.10;19.75;;;;;;;17.86;30.19;102403.53;5080299;28;20098;-60
2022/03/24 08:50:13;;;;;;;27.42;18.60;;;;;;;18.00;29.50;102402.72;5070915;28;20116;-61
2022/03/24 08:52:43;;;;;;;27.15;18.95;;;;;;;18.16;29.20;102407.94;5071115;28;20045;-61
2022/03/24 08:55:13;;;;;;;26.23;20.00;;;;;;;18.28;29.37;102403.66;5071363;28;20044;-61
2022/03/24 08:57:41;;;;;;;24.45;18.40;;;;;;;18.48;29.03;102412.19;5070757;28;20437;-61
2022/03/24 09:00:13;;;;;;;26.73;18.13;;;;;;;18.49;29.13;102409.44;5070442;28;20083;-61
2022/03/24 09:02:41;;;;;;;24.02;16.52;;;;;;;18.53;28.34;102410.09;5071470;28;20052;-60
2022/03/24 09:05:09;;;;;;;26.92;16.48;;;;;;;18.70;27.66;102409.88;5070796;28;20338;-63
2022/03/24 09:07:36;;;;;;;24.92;15.25;;;;;;;18.81;27.48;102405.66;5070600;28;20447;-60
2022/03/24 09:10:06;;;;;;;19.48;14.70;;;;;;;18.87;26.58;102403.44;5075815;28;20048;-60
2022/03/24 09:12:35;;;;;;;20.42;15.20;;;;;;;19.12;26.38;102398.34;5091005;28;20136;-61
2022/03/24 09:15:05;;;;;;;21.48;15.57;;;;;;;19.45;25.93;102402.34;5091140;28;20101;-61
2022/03/24 09:17:32;;;;;;;19.38;14.63;;;;;;;19.60;25.86;102395.97;5090551;28;20048;-61
2022/03/24 09:19:59;;;;;;;21.77;16.58;;;;;;;19.75;25.45;102400.22;5091031;28;20052;-61
2022/03/24 09:22:26;;;;;;;23.77;15.68;;;;;;;19.97;25.46;102398.78;5071577;28;20048;-61
2022/03/24 09:24:52;;;;;;;22.85;15.90;;;;;;;20.03;24.89;102403.66;5070733;28;20053;-61
2022/03/24 09:27:19;;;;;;;20.88;16.25;;;;;;;20.26;24.88;102395.84;5070168;28;20056;-61
2022/03/24 09:29:46;;;;;;;23.58;17.30;;;;;;;20.48;24.70;102400.50;5070544;28;20052;-61
2022/03/24 09:32:12;;;;;;;21.35;16.20;;;;;;;20.70;24.45;102402.47;5070319;28;20102;-61
2022/03/24 09:34:40;;;;;;;23.58;17.13;;;;;;;20.65;24.09;102396.59;5070633;28;20056;-61
2022/03/24 09:37:08;;;;;;;22.95;17.65;;;;;;;20.91;24.04;102391.16;5069718;28;20041;-61
2022/03/24 09:39:35;;;;;;;25.55;17.23;;;;;;;21.05;23.93;102390.13;5070511;28;20265;-61
2022/03/24 09:42:02;;;;;;;21.83;16.75;;;;;;;21.22;23.99;102388.88;5087157;28;20067;-61
2022/03/24 09:44:29;;;;;;;21.90;17.75;;;;;;;21.41;23.97;102385.66;5090458;28;20097;-61
2022/03/24 09:46:56;;;;;;;19.70;14.07;;;;;;;21.48;23.84;102384.22;5090558;28;20043;-61
2022/03/24 09:49:23;;;;;;;19.88;14.68;;;;;;;21.58;23.68;102383.53;5089445;28;20044;-60
2022/03/24 09:51:50;;;;;;;20.98;13.05;;;;;;;21.73;23.76;102386.81;5090414;28;20052;-60
2022/03/24 09:54:17;;;;;;;21.27;14.00;;;;;;;21.90;23.05;102390.84;5077728;28;20044;-62
2022/03/24 09:56:43;;;;;;;18.48;14.32;;;;;;;22.06;22.83;102382.47;5078725;28;20044;-61
2022/03/24 09:59:10;;;;;;;17.50;13.05;;;;;;;22.10;22.50;102376.72;5089642;28;20040;-61
2022/03/24 10:01:39;;;;;;;21.25;14.73;;;;;;;22.34;21.88;102381.06;5089916;28;20052;-61
2022/03/24 10:04:11;;;;;;;15.38;13.23;;;;;;;22.58;21.44;102372.06;5089594;28;20102;-61
2022/03/24 10:06:39;;;;;;;21.38;14.50;;;;;;;22.75;21.49;102370.66;5090332;28;20048;-61
2022/03/24 10:09:07;;;;;;;21.27;13.75;;;;;;;22.93;21.09;102361.09;5080735;28;20036;-62
2022/03/24 10:11:35;;;;;;;20.23;14.10;;;;;;;23.14;21.21;102362.94;5083158;28;20044;-61
2022/03/24 10:14:04;;;;;;;22.80;14.23;;;;;;;23.30;21.13;102360.69;5089686;28;20458;-61
2022/03/24 10:16:33;;;;;;;19.35;14.18;;;;;;;23.44;21.27;102362.19;5089618;28;20070;-62
2022/03/24 10:19:06;;;;;;;17.15;14.18;;;;;;;23.36;21.56;102361.13;5089124;28;20093;-60
2022/03/24 10:21:38;;;;;;;18.25;13.05;;;;;;;23.47;21.54;102355.72;5089498;28;20485;-60
2022/03/24 10:24:10;;;;;;;20.38;12.70;;;;;;;23.53;21.86;102352.50;5088382;28;20044;-62
2022/03/24 10:26:43;;;;;;;18.63;12.80;;;;;;;23.64;22.03;102355.09;5088542;28;20098;-62
2022/03/24 10:29:11;;;;;;;21.25;11.90;;;;;;;23.80;22.12;102348.38;5089312;28;20485;-61
2022/03/24 10:31:41;;;;;;;18.63;12.57;;;;;;;23.94;21.77;102348.03;5089318;28;20060;-61
2022/03/24 10:34:10;;;;;;;21.92;11.32;;;;;;;23.97;21.94;102346.91;5088933;28;20500;-60
2022/03/24 10:36:41;;;;;;;19.15;10.65;;;;;;;23.99;21.78;102346.81;5089898;28;20484;-60
2022/03/24 10:39:08;;;;;;;16.67;11.23;;;;;;;23.99;21.29;102350.31;5089156;28;20047;-61
2022/03/24 10:41:37;;;;;;;13.43;11.05;;;;;;;24.22;21.03;102342.91;5089158;28;20450;-62
2022/03/24 10:44:07;;;;;;;14.10;11.00;;;;;;;24.35;20.62;102333.75;5082312;28;20558;-61
2022/03/24 10:46:36;;;;;;;14.93;11.68;;;;;;;24.59;20.06;102323.47;5068493;28;20052;-61
2022/03/24 10:49:22;;;;;;;16.77;10.25;;;;;;;24.60;19.15;102321.63;5067943;28;20497;-62
2022/03/24 10:51:55;;;;;;;14.38;11.32;;;;;;;24.87;18.92;102318.25;5068994;28;20105;-62
2022/03/24 10:54:37;;;;;;;12.77;10.70;;;;;;;24.91;18.92;102316.13;5069016;28;20515;-62
2022/03/24 10:57:13;;;;;;;15.75;10.93;;;;;;;24.87;18.46;102304.81;5068612;28;20053;-61
2022/03/24 10:59:46;;;;;;;14.40;10.48;;;;;;;25.12;18.18;102297.16;5082852;28;20542;-63
2022/03/24 11:02:15;;;;;;;15.73;10.43;;;;;;;25.17;18.38;102302.94;5078220;28;20108;-62
2022/03/24 11:04:43;;;;;;;16.40;10.82;;;;;;;25.18;18.61;102299.25;5089130;28;20579;-62
2022/03/24 11:07:10;;;;;;;12.13;10.43;;;;;;;25.37;18.74;102301.06;5088291;28;20059;-62
2022/03/24 11:09:36;;;;;;;13.65;10.70;;;;;;;25.55;18.26;102297.63;5088976;28;20051;-62
2022/03/24 11:12:26;;;;;;;13.30;9.75;;;;;;;25.81;17.59;102292.38;5088838;28;20241;-61
2022/03/24 11:15:04;;;;;;;15.30;9.07;;;;;;;25.85;17.50;102291.09;5086140;28;20056;-61
2022/03/24 11:17:35;;;;;;;11.88;9.43;;;;;;;26.01;16.92;102289.59;5067584;28;20049;-62